Time;durP1;ratioP1;P1;durP2;ratioP2;P2;SDS_P1;SDS_P2;PMS_P1;PMS_P2;Temp;Humidity;BMP_temperature;BMP_pressure;BME280_temperature;BME280_humidity;BME280_pressure;Samples;Min_cycle;Max_cycle;Signal;HPM_P1;HPM_P2
2023/05/09 00:00:28;;;;;;;6.50;5.07;;;11.90;76.50;;;;;;5071733;28;20418;-49
2023/05/09 00:02:55;;;;;;;6.20;4.47;;;11.80;76.80;;;;;;5071751;28;20424;-48
2023/05/09 00:05:22;;;;;;;6.13;5.10;;;11.50;76.80;;;;;;5071609;28;20446;-48
2023/05/09 00:07:48;;;;;;;9.93;4.30;;;11.60;76.90;;;;;;5071848;28;20833;-48
2023/05/09 00:10:16;;;;;;;10.10;6.47;;;11.80;77.40;;;;;;5053750;28;20448;-48
2023/05/09 00:12:43;;;;;;;8.53;6.60;;;11.50;77.40;;;;;;5053724;28;20446;-48
2023/05/09 00:15:10;;;;;;;5.33;4.83;;;11.20;77.20;;;;;;5071717;28;20914;-48
2023/05/09 00:17:38;;;;;;;7.00;4.93;;;11.40;77.70;;;;;;5073250;28;20801;-48
2023/05/09 00:20:10;;;;;;;7.93;4.90;;;11.80;78.40;;;;;;5075321;28;20837;-48
2023/05/09 00:22:37;;;;;;;7.33;5.50;;;11.60;78.20;;;;;;5047864;28;20486;-49
2023/05/09 00:25:04;;;;;;;10.43;5.70;;;11.10;77.80;;;;;;5055348;28;20919;-48
2023/05/09 00:27:32;;;;;;;10.00;5.67;;;11.20;78.20;;;;;;5055362;28;20963;-49
2023/05/09 00:29:58;;;;;;;5.87;4.60;;;10.90;77.90;;;;;;5055323;28;20450;-50
2023/05/09 00:32:26;;;;;;;5.30;4.80;;;11.60;78.80;;;;;;5055434;28;20457;-49
2023/05/09 00:34:53;;;;;;;7.50;5.27;;;11.20;78.60;;;;;;5037511;28;20457;-49
2023/05/09 00:37:20;;;;;;;7.40;5.47;;;11.80;80.00;;;;;;5037356;28;20430;-49
2023/05/09 00:39:46;;;;;;;5.70;4.80;;;11.30;79.70;;;;;;5036813;28;20831;-49
2023/05/09 00:42:13;;;;;;;6.50;4.90;;;11.30;79.30;;;;;;5055183;28;20445;-49
2023/05/09 00:44:42;;;;;;;6.03;4.97;;;11.60;79.60;;;;;;5055445;28;20407;-48
2023/05/09 00:47:08;;;;;;;7.17;5.20;;;11.30;79.70;;;;;;5062680;28;20630;-48
2023/05/09 00:49:35;;;;;;;6.30;4.73;;;11.00;79.20;;;;;;5076293;28;20423;-48
2023/05/09 00:52:03;;;;;;;7.60;4.67;;;11.20;80.00;;;;;;5075681;28;20454;-49
2023/05/09 00:54:30;;;;;;;6.73;4.60;;;11.80;80.60;;;;;;5076662;28;20433;-49
2023/05/09 00:56:57;;;;;;;8.00;5.47;;;11.00;79.50;;;;;;5058009;28;20454;-49
2023/05/09 00:59:23;;;;;;;5.10;4.33;;;11.10;80.10;;;;;;5075578;28;20438;-48
2023/05/09 01:01:52;;;;;;;6.60;5.10;;;11.20;80.30;;;;;;5058195;28;20832;-48
2023/05/09 01:04:18;;;;;;;6.67;4.97;;;11.30;80.20;;;;;;5056934;28;20446;-47
2023/05/09 01:06:52;;;;;;;5.23;4.73;;;11.60;80.80;;;;;;5075168;28;20445;-48
2023/05/09 01:09:26;;;;;;;5.70;4.30;;;11.10;80.50;;;;;;5074540;28;20436;-49
2023/05/09 01:11:59;;;;;;;6.87;4.27;;;11.10;80.40;;;;;;5074675;28;20458;-48
2023/05/09 01:14:33;;;;;;;5.43;4.30;;;11.30;80.50;;;;;;5056687;28;20962;-49
2023/05/09 01:17:08;;;;;;;5.43;4.40;;;11.20;80.30;;;;;;5074514;28;20409;-49
2023/05/09 01:19:52;;;;;;;8.37;4.90;;;11.00;80.60;;;;;;5056259;28;20457;-49
2023/05/09 01:22:20;;;;;;;6.30;4.20;;;11.60;81.30;;;;;;5067293;28;20941;-48
2023/05/09 01:25:12;;;;;;;4.70;4.30;;;11.40;80.90;;;;;;5054311;28;20894;-48
2023/05/09 01:27:48;;;;;;;7.17;4.87;;;11.00;80.70;;;;;;5054252;28;20584;-49
2023/05/09 01:30:17;;;;;;;9.57;5.10;;;11.00;80.60;;;;;;5035078;28;20447;-49
2023/05/09 01:32:46;;;;;;;7.47;4.20;;;10.30;79.90;;;;;;5054200;28;20793;-49
2023/05/09 01:35:14;;;;;;;8.03;4.70;;;11.00;80.60;;;;;;5036342;28;20524;-49
2023/05/09 01:37:44;;;;;;;4.77;4.00;;;11.30;81.00;;;;;;5054211;28;20435;-48
2023/05/09 01:40:15;;;;;;;4.13;3.73;;;11.10;80.40;;;;;;5053661;28;20397;-49
2023/05/09 01:42:44;;;;;;;8.13;5.00;;;11.00;80.60;;;;;;5053949;28;20497;-50
2023/05/09 01:45:13;;;;;;;5.63;3.53;;;11.10;80.50;;;;;;5036335;28;20516;-48
2023/05/09 01:47:42;;;;;;;4.80;3.73;;;11.10;80.50;;;;;;5047555;28;20830;-49
2023/05/09 01:50:11;;;;;;;5.70;4.37;;;11.10;80.30;;;;;;5055597;28;20936;-48
2023/05/09 01:52:40;;;;;;;6.80;3.97;;;10.90;80.00;;;;;;5073679;28;20453;-49
2023/05/09 01:55:08;;;;;;;7.90;4.33;;;11.00;80.00;;;;;;5073959;28;20405;-49
2023/05/09 01:57:37;;;;;;;5.67;3.63;;;10.80;79.60;;;;;;5073778;28;20471;-48
2023/05/09 02:00:05;;;;;;;5.00;3.80;;;11.20;80.00;;;;;;5055656;28;20424;-48
2023/05/09 02:02:41;;;;;;;4.93;3.33;;;10.80;79.30;;;;;;5073821;28;20783;-47
2023/05/09 02:05:10;;;;;;;4.80;4.00;;;10.70;79.10;;;;;;5055932;28;20424;-47
2023/05/09 02:07:37;;;;;;;6.53;4.17;;;10.80;78.80;;;;;;5055572;28;20980;-48
2023/05/09 02:10:07;;;;;;;5.97;3.57;;;10.40;78.20;;;;;;5073194;28;20404;-48
2023/05/09 02:12:37;;;;;;;6.80;3.83;;;11.00;78.30;;;;;;5056029;28;20568;-48
2023/05/09 02:15:04;;;;;;;7.13;3.67;;;10.80;78.00;;;;;;5055652;28;20453;-48
2023/05/09 02:17:31;;;;;;;4.50;3.63;;;11.10;78.30;;;;;;5055782;28;20496;-49
2023/05/09 02:19:59;;;;;;;3.87;3.47;;;11.20;78.00;;;;;;5073107;28;21020;-47
2023/05/09 02:22:26;;;;;;;6.33;3.47;;;10.90;77.50;;;;;;5065721;28;20823;-48
2023/05/09 02:24:53;;;;;;;5.70;3.10;;;10.90;77.50;;;;;;5035932;28;20413;-47
2023/05/09 02:27:20;;;;;;;5.63;3.63;;;11.20;77.80;;;;;;5035638;28;20445;-48
2023/05/09 02:29:50;;;;;;;4.20;2.80;;;10.40;76.50;;;;;;5052905;28;20921;-48
2023/05/09 02:32:21;;;;;;;4.20;3.77;;;10.90;76.90;;;;;;5052946;28;20429;-48
2023/05/09 02:34:50;;;;;;;5.23;3.63;;;11.20;77.10;;;;;;5053138;28;20424;-48
2023/05/09 02:37:20;;;;;;;6.07;3.87;;;10.60;76.30;;;;;;5053187;28;20432;-49
2023/05/09 02:39:47;;;;;;;9.70;3.77;;;10.70;75.90;;;;;;5052396;28;20429;-47
2023/05/09 02:42:16;;;;;;;4.47;2.43;;;10.70;76.20;;;;;;5034864;28;20458;-48
2023/05/09 02:44:43;;;;;;;4.70;3.10;;;10.90;76.10;;;;;;5034930;28;20418;-48
2023/05/09 02:47:09;;;;;;;4.20;3.20;;;10.70;75.90;;;;;;5060157;28;20478;-48
2023/05/09 02:49:36;;;;;;;5.17;3.33;;;10.90;76.20;;;;;;5054867;28;20445;-48
2023/05/09 02:52:05;;;;;;;4.80;2.83;;;10.60;75.90;;;;;;5054816;28;20528;-48
2023/05/09 02:54:33;;;;;;;6.13;3.40;;;10.60;75.80;;;;;;5054667;28;20423;-48
2023/05/09 02:56:59;;;;;;;6.70;3.20;;;10.80;76.10;;;;;;5054619;28;20435;-48
2023/05/09 02:59:26;;;;;;;3.80;3.10;;;10.60;75.70;;;;;;5072142;28;20404;-49
2023/05/09 03:01:53;;;;;;;5.33;3.10;;;10.80;76.00;;;;;;5072484;28;20877;-48
2023/05/09 03:04:20;;;;;;;4.83;3.30;;;10.50;75.60;;;;;;5054768;28;20442;-48
2023/05/09 03:06:47;;;;;;;5.07;3.33;;;10.80;76.10;;;;;;5054291;28;20467;-49
2023/05/09 03:09:14;;;;;;;4.63;3.23;;;10.70;76.00;;;;;;5053912;28;20523;-49
2023/05/09 03:11:42;;;;;;;9.27;3.87;;;10.80;76.20;;;;;;5054216;28;20448;-48
2023/05/09 03:14:10;;;;;;;4.77;3.50;;;10.60;76.00;;;;;;5072198;28;20415;-48
2023/05/09 03:16:36;;;;;;;4.93;3.57;;;10.80;76.30;;;;;;5072208;28;20470;-47
2023/05/09 03:19:04;;;;;;;6.50;4.60;;;10.50;76.00;;;;;;5053882;28;20428;-49
2023/05/09 03:21:31;;;;;;;7.63;4.33;;;10.60;76.20;;;;;;5053561;28;20444;-49
2023/05/09 03:23:58;;;;;;;6.20;3.97;;;10.50;75.80;;;;;;5034258;28;20471;-49
2023/05/09 03:26:26;;;;;;;4.77;3.50;;;10.50;76.00;;;;;;5052163;28;20416;-49
2023/05/09 03:28:55;;;;;;;4.20;3.80;;;11.10;76.80;;;;;;5051692;28;20449;-49
2023/05/09 03:31:22;;;;;;;4.20;3.27;;;10.50;76.10;;;;;;5051973;28;20408;-50
2023/05/09 03:33:48;;;;;;;6.43;3.30;;;10.70;76.30;;;;;;5034251;28;20455;-49
2023/05/09 03:36:16;;;;;;;5.53;3.40;;;9.90;76.80;;;;;;5034300;28;20476;-48
2023/05/09 03:38:43;;;;;;;5.33;3.70;;;10.20;75.90;;;;;;5034323;28;20421;-47
2023/05/09 03:41:10;;;;;;;10.47;4.30;;;10.80;76.50;;;;;;5035886;28;20455;-48
2023/05/09 03:43:37;;;;;;;7.20;3.57;;;10.80;76.70;;;;;;5035090;28;20462;-48
2023/05/09 03:46:05;;;;;;;5.50;3.77;;;10.50;76.30;;;;;;5053211;28;20430;-48
2023/05/09 03:48:32;;;;;;;6.67;4.00;;;10.50;76.50;;;;;;5053723;28;20455;-48
2023/05/09 03:50:59;;;;;;;7.40;3.33;;;10.40;76.50;;;;;;5055571;28;20412;-49
2023/05/09 03:53:28;;;;;;;5.60;3.70;;;10.60;76.70;;;;;;5054459;28;20428;-47
2023/05/09 03:55:55;;;;;;;4.30;3.70;;;10.70;77.10;;;;;;5054316;28;20432;-49
2023/05/09 03:58:22;;;;;;;4.33;3.30;;;10.90;77.40;;;;;;5053690;28;20454;-48
2023/05/09 04:00:49;;;;;;;4.63;3.30;;;10.10;76.70;;;;;;5053855;28;20431;-48
2023/05/09 04:03:22;;;;;;;7.27;3.77;;;10.60;77.60;;;;;;5053665;28;20449;-48
2023/05/09 04:05:51;;;;;;;4.00;3.60;;;10.80;77.80;;;;;;5053769;28;20427;-48
2023/05/09 04:08:27;;;;;;;8.50;4.00;;;10.60;77.70;;;;;;5053224;28;20979;-48
2023/05/09 04:10:53;;;;;;;8.17;3.80;;;10.10;77.30;;;;;;5053628;28;20936;-48
2023/05/09 04:13:20;;;;;;;15.50;4.60;;;10.60;77.80;;;;;;5053474;28;20526;-48
2023/05/09 04:15:47;;;;;;;5.50;4.33;;;11.10;78.30;;;;;;5053550;28;21021;-48
2023/05/09 04:18:14;;;;;;;8.20;4.27;;;10.50;77.70;;;;;;5071270;28;20415;-48
2023/05/09 04:20:42;;;;;;;5.37;4.30;;;10.50;77.50;;;;;;5053624;28;20503;-47
2023/05/09 04:23:09;;;;;;;5.83;5.03;;;10.90;77.90;;;;;;5039463;28;20478;-48
2023/05/09 04:25:36;;;;;;;6.03;4.30;;;11.10;78.00;;;;;;5033579;28;20535;-48
2023/05/09 04:28:03;;;;;;;6.03;4.30;;;11.20;77.40;;;;;;5033623;28;20454;-47
2023/05/09 04:30:30;;;;;;;6.73;4.43;;;11.60;77.30;;;;;;5033360;28;20425;-48
2023/05/09 04:32:57;;;;;;;10.27;4.30;;;11.60;76.80;;;;;;5033603;28;20844;-48
2023/05/09 04:35:25;;;;;;;10.30;4.20;;;11.60;76.30;;;;;;5033570;28;20492;-48
2023/05/09 04:37:54;;;;;;;7.17;4.50;;;12.10;76.50;;;;;;5033318;28;20454;-47
2023/05/09 04:40:21;;;;;;;4.33;3.53;;;12.00;75.80;;;;;;5033126;28;20992;-47
2023/05/09 04:42:56;;;;;;;9.67;5.50;;;11.90;75.30;;;;;;5033198;28;20487;-48
2023/05/09 04:45:25;;;;;;;5.97;4.53;;;12.20;75.20;;;;;;5033512;28;20422;-48
2023/05/09 04:47:52;;;;;;;5.57;4.40;;;12.30;74.90;;;;;;5045941;28;20472;-48
2023/05/09 04:50:19;;;;;;;13.33;5.10;;;12.30;74.60;;;;;;5070769;28;20408;-50
2023/05/09 04:52:45;;;;;;;10.60;4.43;;;12.30;74.30;;;;;;5053421;28;20807;-50
2023/05/09 04:55:14;;;;;;;6.50;4.40;;;12.30;74.00;;;;;;5053144;28;20446;-50
2023/05/09 04:57:44;;;;;;;7.43;4.40;;;12.90;74.50;;;;;;5052531;28;20518;-49
2023/05/09 05:00:12;;;;;;;9.23;4.87;;;12.30;73.70;;;;;;5052534;28;20953;-50
2023/05/09 05:02:39;;;;;;;5.33;4.40;;;12.60;73.60;;;;;;5051736;28;20495;-50
2023/05/09 05:05:07;;;;;;;13.73;4.90;;;12.70;73.50;;;;;;5053967;28;20604;-49
2023/05/09 05:07:37;;;;;;;5.80;4.10;;;13.10;73.70;;;;;;5056260;28;20484;-50
2023/05/09 05:10:05;;;;;;;11.10;4.80;;;13.00;73.20;;;;;;5056324;28;20429;-50
2023/05/09 05:12:33;;;;;;;7.27;5.07;;;12.90;72.70;;;;;;5056497;28;20567;-51
2023/05/09 05:15:00;;;;;;;5.17;3.70;;;12.90;72.50;;;;;;5055712;28;20545;-50
2023/05/09 05:17:28;;;;;;;4.60;3.87;;;12.60;72.00;;;;;;5056511;28;20457;-49
2023/05/09 05:19:55;;;;;;;6.37;3.90;;;13.30;72.30;;;;;;5056116;28;20461;-51
2023/05/09 05:22:21;;;;;;;11.67;4.27;;;13.20;71.70;;;;;;5048950;28;20494;-50
2023/05/09 05:24:48;;;;;;;6.10;4.60;;;13.30;71.70;;;;;;5036273;28;20451;-51
2023/05/09 05:27:15;;;;;;;8.83;4.80;;;13.30;71.60;;;;;;5035978;28;20456;-50
2023/05/09 05:29:43;;;;;;;5.20;3.57;;;14.00;72.00;;;;;;5035701;28;20481;-50
2023/05/09 05:32:10;;;;;;;6.40;4.03;;;13.30;70.70;;;;;;5036025;28;20468;-50
2023/05/09 05:34:38;;;;;;;5.97;3.83;;;13.80;70.80;;;;;;5035976;28;20460;-50
2023/05/09 05:37:05;;;;;;;6.27;3.83;;;13.60;70.10;;;;;;5036060;28;20440;-52
2023/05/09 05:39:32;;;;;;;6.67;3.40;;;13.50;69.50;;;;;;5033995;28;20507;-51
2023/05/09 05:41:58;;;;;;;5.70;4.40;;;14.20;70.10;;;;;;5034730;28;20456;-49
2023/05/09 05:44:25;;;;;;;7.40;3.50;;;13.90;69.10;;;;;;5035987;28;20941;-50
2023/05/09 05:46:53;;;;;;;8.07;4.00;;;14.30;69.30;;;;;;5040238;28;20432;-49
2023/05/09 05:49:20;;;;;;;7.50;3.97;;;14.00;68.70;;;;;;5055001;28;20489;-49
2023/05/09 05:51:46;;;;;;;6.90;4.60;;;14.60;68.90;;;;;;5054223;28;20435;-51
2023/05/09 05:54:13;;;;;;;7.80;4.13;;;14.60;68.20;;;;;;5054798;28;20466;-50
2023/05/09 05:56:40;;;;;;;7.27;4.50;;;14.60;67.80;;;;;;5055533;28;20423;-50
2023/05/09 05:59:08;;;;;;;4.07;3.67;;;14.40;67.30;;;;;;5054376;28;20454;-49
2023/05/09 06:01:35;;;;;;;5.60;4.00;;;14.00;66.50;;;;;;5073324;28;20442;-50
2023/05/09 06:04:03;;;;;;;5.63;3.97;;;14.60;66.80;;;;;;5055442;28;20857;-49
2023/05/09 06:06:31;;;;;;;5.83;3.27;;;14.40;66.40;;;;;;5054330;28;20498;-50
2023/05/09 06:08:58;;;;;;;9.47;3.97;;;14.60;66.40;;;;;;5071482;28;20476;-49
2023/05/09 06:11:25;;;;;;;7.10;5.50;;;14.30;65.80;;;;;;5054739;28;20461;-50
2023/05/09 06:13:52;;;;;;;7.27;3.43;;;14.80;66.10;;;;;;5054784;28;20472;-50
2023/05/09 06:16:19;;;;;;;6.70;4.37;;;15.10;66.30;;;;;;5072198;28;20906;-49
2023/05/09 06:18:48;;;;;;;5.10;3.60;;;15.00;65.60;;;;;;5054484;28;20470;-49
2023/05/09 06:21:16;;;;;;;8.00;4.03;;;15.20;65.20;;;;;;5054941;28;20565;-49
2023/05/09 06:23:43;;;;;;;7.70;3.70;;;14.80;64.90;;;;;;5036174;28;20430;-50
2023/05/09 06:26:11;;;;;;;6.20;3.80;;;14.90;65.00;;;;;;5052586;28;20437;-49
2023/05/09 06:28:37;;;;;;;9.10;4.73;;;14.80;64.80;;;;;;5034524;28;20477;-50
2023/05/09 06:31:04;;;;;;;6.27;3.40;;;14.90;64.40;;;;;;5053166;28;20412;-50
2023/05/09 06:33:31;;;;;;;6.43;3.60;;;14.70;64.00;;;;;;5052620;28;20532;-49
2023/05/09 06:35:59;;;;;;;8.50;3.63;;;15.30;64.50;;;;;;5052924;28;20447;-49
2023/05/09 06:38:27;;;;;;;7.33;3.77;;;14.80;64.20;;;;;;5052595;28;20925;-50
2023/05/09 06:40:53;;;;;;;10.33;4.87;;;15.00;64.40;;;;;;5052706;28;20439;-50
2023/05/09 06:43:20;;;;;;;4.87;3.63;;;14.90;64.50;;;;;;5052591;28;20448;-50
2023/05/09 06:45:47;;;;;;;6.50;3.60;;;15.20;64.90;;;;;;5051787;28;20444;-51
2023/05/09 06:48:13;;;;;;;7.70;3.80;;;15.10;64.60;;;;;;5067568;28;20997;-49
2023/05/09 06:50:40;;;;;;;5.40;3.80;;;14.90;64.30;;;;;;5054034;28;20417;-50
2023/05/09 06:53:07;;;;;;;4.23;3.30;;;14.90;64.10;;;;;;5072032;28;20460;-48
2023/05/09 06:55:35;;;;;;;6.63;4.00;;;14.50;63.40;;;;;;5071753;28;20425;-49
2023/05/09 06:58:01;;;;;;;5.57;4.20;;;15.00;63.80;;;;;;5071582;28;20441;-50
2023/05/09 07:00:28;;;;;;;8.33;4.33;;;15.20;63.90;;;;;;5071883;28;20448;-49
2023/05/09 07:02:55;;;;;;;5.17;3.90;;;14.90;63.60;;;;;;5071611;28;20491;-51
2023/05/09 07:05:21;;;;;;;5.40;3.90;;;14.90;63.60;;;;;;5072231;28;20416;-49
2023/05/09 07:07:48;;;;;;;8.90;4.37;;;14.70;63.60;;;;;;5071856;28;20413;-50
2023/05/09 07:10:15;;;;;;;6.30;4.27;;;14.90;63.90;;;;;;5071352;28;20416;-49
2023/05/09 07:12:43;;;;;;;5.67;4.23;;;14.90;63.60;;;;;;5071739;28;20470;-49
2023/05/09 07:15:10;;;;;;;7.43;4.10;;;15.00;63.90;;;;;;5071614;28;20408;-50
2023/05/09 07:17:37;;;;;;;5.83;4.23;;;14.80;63.70;;;;;;5071672;28;20495;-49
2023/05/09 07:20:05;;;;;;;6.10;3.97;;;14.80;63.30;;;;;;5071186;28;20514;-49
2023/05/09 07:22:31;;;;;;;5.13;3.33;;;14.80;63.30;;;;;;5061960;28;20458;-48
2023/05/09 07:24:58;;;;;;;7.23;3.97;;;14.80;62.80;;;;;;5051286;28;20910;-49
2023/05/09 07:27:25;;;;;;;5.10;3.53;;;14.70;62.40;;;;;;5050539;28;20438;-49
2023/05/09 07:29:53;;;;;;;7.97;3.80;;;14.70;62.50;;;;;;5051135;28;20486;-49
2023/05/09 07:32:19;;;;;;;6.80;4.10;;;15.20;63.00;;;;;;5050787;28;20461;-50
2023/05/09 07:34:46;;;;;;;4.87;4.20;;;15.10;62.20;;;;;;5050930;28;20462;-49
2023/05/09 07:37:13;;;;;;;5.97;4.10;;;14.90;60.90;;;;;;5051107;28;20438;-49
2023/05/09 07:39:39;;;;;;;6.30;3.93;;;15.30;61.30;;;;;;5050401;28;20454;-50
2023/05/09 07:42:07;;;;;;;4.93;3.07;;;15.00;61.10;;;;;;5050637;28;20470;-52
2023/05/09 07:44:33;;;;;;;8.03;3.43;;;14.80;60.80;;;;;;5050990;28;20498;-49
2023/05/09 07:47:04;;;;;;;5.10;3.77;;;15.40;61.60;;;;;;5056497;28;20489;-50
2023/05/09 07:49:30;;;;;;;6.13;3.50;;;15.10;61.30;;;;;;5070739;28;21034;-50
2023/05/09 07:51:57;;;;;;;7.20;3.80;;;15.30;61.00;;;;;;5071240;28;20450;-49
2023/05/09 07:54:23;;;;;;;5.87;3.50;;;14.80;60.20;;;;;;5071126;28;20445;-50
2023/05/09 07:56:50;;;;;;;4.73;3.40;;;15.50;60.50;;;;;;5070794;28;20893;-49
2023/05/09 07:59:17;;;;;;;6.40;3.80;;;15.00;59.60;;;;;;5070437;28;20412;-49
2023/05/09 08:01:44;;;;;;;5.90;3.30;;;15.10;59.60;;;;;;5071410;28;20411;-49
2023/05/09 08:04:12;;;;;;;5.60;3.47;;;14.90;59.50;;;;;;5071247;28;20954;-50
2023/05/09 08:06:38;;;;;;;5.53;3.03;;;14.90;59.30;;;;;;5071717;28;20738;-49
2023/05/09 08:09:05;;;;;;;4.57;3.50;;;15.00;59.10;;;;;;5070981;28;20462;-50
2023/05/09 08:11:33;;;;;;;5.97;3.60;;;15.10;59.30;;;;;;5071146;28;20969;-50
2023/05/09 08:13:59;;;;;;;6.23;3.40;;;15.00;59.20;;;;;;5070783;28;20430;-49
2023/05/09 08:16:26;;;;;;;5.63;3.57;;;14.90;58.80;;;;;;5070873;28;20465;-49
2023/05/09 08:18:53;;;;;;;9.70;3.90;;;15.40;59.20;;;;;;5070681;28;20434;-50
2023/05/09 08:21:21;;;;;;;4.23;3.50;;;15.00;59.00;;;;;;5071621;28;20750;-49
2023/05/09 08:23:48;;;;;;;4.70;3.87;;;15.30;58.90;;;;;;5051401;28;20413;-49
2023/05/09 08:26:14;;;;;;;6.87;3.93;;;15.20;58.40;;;;;;5051118;28;20401;-49
2023/05/09 08:28:41;;;;;;;5.40;3.23;;;15.30;58.50;;;;;;5049647;28;20945;-49
2023/05/09 08:31:07;;;;;;;3.90;3.50;;;15.20;57.80;;;;;;5051501;28;20427;-48
2023/05/09 08:33:34;;;;;;;3.70;3.30;;;15.20;57.10;;;;;;5050463;28;20502;-49
2023/05/09 08:36:01;;;;;;;4.00;3.23;;;14.70;56.70;;;;;;5050935;28;20897;-50
2023/05/09 08:38:29;;;;;;;6.93;3.33;;;15.20;57.20;;;;;;5034183;28;20864;-49
2023/05/09 08:41:00;;;;;;;7.70;3.37;;;15.30;57.30;;;;;;5054540;28;20931;-49
2023/05/09 08:43:28;;;;;;;4.30;3.10;;;15.60;57.50;;;;;;5054507;28;20501;-50
2023/05/09 08:45:59;;;;;;;12.50;3.97;;;15.20;57.20;;;;;;5055101;28;20434;-49
2023/05/09 08:48:26;;;;;;;6.97;3.60;;;15.40;57.50;;;;;;5072105;28;20438;-50
2023/05/09 08:50:54;;;;;;;10.40;3.87;;;15.70;57.80;;;;;;5074607;28;20961;-50
2023/05/09 08:53:21;;;;;;;5.60;3.40;;;15.40;57.50;;;;;;5074285;28;20462;-50
2023/05/09 08:55:51;;;;;;;6.37;3.83;;;15.50;57.30;;;;;;5059618;28;20811;-49
2023/05/09 08:58:21;;;;;;;4.70;3.80;;;15.70;57.60;;;;;;5053275;28;20449;-49
2023/05/09 09:00:49;;;;;;;5.40;3.77;;;15.50;57.60;;;;;;5054216;28;20438;-49
2023/05/09 09:03:17;;;;;;;5.30;3.73;;;15.40;57.60;;;;;;5054156;28;20862;-49
2023/05/09 09:05:46;;;;;;;5.20;3.47;;;15.50;57.70;;;;;;5054131;28;20408;-50
2023/05/09 09:08:13;;;;;;;4.97;3.50;;;15.50;57.20;;;;;;5053631;28;20795;-49
2023/05/09 09:10:42;;;;;;;3.20;2.83;;;15.60;57.30;;;;;;5054347;28;20449;-49
2023/05/09 09:13:12;;;;;;;10.00;4.07;;;15.60;57.50;;;;;;5054264;28;20556;-49
2023/05/09 09:15:41;;;;;;;4.47;3.47;;;15.90;57.90;;;;;;5054943;28;20418;-50
2023/05/09 09:18:09;;;;;;;11.53;3.43;;;15.80;57.40;;;;;;5054824;28;20796;-49
2023/05/09 09:20:39;;;;;;;4.63;3.70;;;15.90;57.30;;;;;;5054591;28;20505;-49
2023/05/09 09:23:09;;;;;;;4.95;3.78;;;15.90;57.00;;;;;;5054283;28;20424;-49
2023/05/09 09:25:36;;;;;;;5.90;3.70;;;15.90;57.40;;;;;;5054501;28;20201;-49
2023/05/09 09:28:03;;;;;;;3.80;3.40;;;15.80;57.50;;;;;;5054503;28;20441;-50
2023/05/09 09:30:31;;;;;;;7.73;3.30;;;16.20;57.40;;;;;;5053682;28;20493;-50
2023/05/09 09:32:59;;;;;;;4.23;3.50;;;16.30;56.60;;;;;;5053876;28;20549;-49
2023/05/09 09:35:25;;;;;;;5.93;3.57;;;15.90;56.40;;;;;;5035803;28;20443;-50
2023/05/09 09:37:57;;;;;;;5.73;3.50;;;15.90;56.20;;;;;;5053808;28;20450;-49
2023/05/09 09:40:24;;;;;;;4.80;3.30;;;15.90;56.30;;;;;;5053556;28;20500;-48
2023/05/09 09:42:51;;;;;;;8.50;3.67;;;16.00;56.70;;;;;;5053770;28;20441;-49
2023/05/09 09:45:19;;;;;;;6.30;3.27;;;15.50;56.30;;;;;;5054255;28;20440;-50
2023/05/09 09:47:49;;;;;;;5.70;3.50;;;15.60;56.00;;;;;;5065406;28;20537;-51
2023/05/09 09:50:17;;;;;;;5.83;3.10;;;16.20;56.60;;;;;;5071919;28;20481;-49
2023/05/09 09:52:52;;;;;;;7.90;3.30;;;16.20;56.60;;;;;;5072398;28;20465;-50
2023/05/09 09:55:20;;;;;;;5.47;3.00;;;16.10;56.20;;;;;;5073444;28;20840;-50
2023/05/09 09:57:47;;;;;;;6.67;3.60;;;16.20;56.30;;;;;;5072760;28;20421;-50
2023/05/09 10:00:16;;;;;;;4.20;3.10;;;16.40;56.40;;;;;;5071860;28;20405;-49
2023/05/09 10:02:54;;;;;;;4.70;3.10;;;16.10;55.60;;;;;;5055157;28;20470;-49
2023/05/09 10:05:22;;;;;;;5.63;3.40;;;16.10;55.20;;;;;;5073098;28;20444;-49
2023/05/09 10:07:57;;;;;;;8.00;3.60;;;16.40;55.50;;;;;;5073241;28;20476;-49
2023/05/09 10:10:27;;;;;;;7.73;4.23;;;16.10;55.10;;;;;;5072439;28;20550;-49
2023/05/09 10:12:57;;;;;;;5.00;2.90;;;16.10;55.10;;;;;;5054893;28;21047;-49
2023/05/09 10:15:25;;;;;;;9.20;3.93;;;16.50;55.60;;;;;;5073061;28;20443;-49
2023/05/09 10:17:55;;;;;;;6.90;3.20;;;16.60;55.60;;;;;;5073487;28;20772;-49
2023/05/09 10:20:23;;;;;;;5.43;3.37;;;16.50;55.00;;;;;;5054533;28;20451;-49
2023/05/09 10:22:53;;;;;;;16.23;3.75;;;16.40;54.60;;;;;;5060112;28;20427;-50
2023/05/09 10:25:21;;;;;;;4.00;3.30;;;16.80;53.90;;;;;;5053120;28;20720;-49
2023/05/09 10:27:49;;;;;;;5.03;2.87;;;16.90;53.70;;;;;;5034949;28;20448;-50
2023/05/09 10:30:18;;;;;;;9.27;3.20;;;16.70;53.50;;;;;;5034353;28;20492;-49
2023/05/09 10:32:52;;;;;;;5.37;2.93;;;16.70;53.40;;;;;;5052247;28;21002;-50
2023/05/09 10:35:26;;;;;;;4.67;3.27;;;16.70;53.10;;;;;;5052364;28;20942;-50
2023/05/09 10:37:56;;;;;;;4.87;3.00;;;16.70;52.80;;;;;;5052594;28;20391;-50
2023/05/09 10:40:23;;;;;;;13.97;3.10;;;16.70;52.70;;;;;;5052517;28;20879;-48
2023/05/09 10:42:50;;;;;;;4.40;3.20;;;16.50;52.80;;;;;;5052165;28;20504;-51
2023/05/09 10:45:17;;;;;;;6.30;3.30;;;16.50;53.00;;;;;;5052357;28;20417;-50
2023/05/09 10:47:45;;;;;;;4.53;3.07;;;16.80;53.20;;;;;;5064288;28;20434;-50
2023/05/09 10:50:12;;;;;;;6.17;2.90;;;16.50;52.90;;;;;;5071859;28;20812;-50
2023/05/09 10:53:06;;;;;;;4.70;3.23;;;16.50;52.40;;;;;;5072508;28;20465;-50
2023/05/09 10:55:38;;;;;;;5.07;3.37;;;16.90;52.30;;;;;;5072560;28;20509;-50
2023/05/09 10:58:23;;;;;;;5.77;3.60;;;16.70;52.30;;;;;;5071858;28;20437;-50
2023/05/09 11:00:50;;;;;;;8.23;3.87;;;17.10;52.30;;;;;;5072416;28;20573;-50
2023/05/09 11:03:18;;;;;;;4.50;3.13;;;17.00;52.10;;;;;;5071903;28;20461;-50
2023/05/09 11:05:46;;;;;;;4.57;3.30;;;16.50;51.60;;;;;;5072131;28;20501;-49
2023/05/09 11:08:25;;;;;;;5.00;3.10;;;16.70;51.90;;;;;;5071644;28;20823;-50
2023/05/09 11:10:53;;;;;;;6.37;3.10;;;16.70;52.00;;;;;;5071778;28;20516;-50
2023/05/09 11:13:23;;;;;;;4.50;2.70;;;16.90;52.50;;;;;;5053839;28;20471;-50
2023/05/09 11:16:09;;;;;;;4.43;3.27;;;16.80;52.20;;;;;;5071869;28;20435;-50
2023/05/09 11:18:50;;;;;;;4.83;3.07;;;17.20;52.10;;;;;;5071596;28;20442;-50
2023/05/09 11:21:19;;;;;;;6.50;3.50;;;17.00;52.10;;;;;;5071628;28;20435;-49
2023/05/09 11:23:48;;;;;;;7.20;3.33;;;16.70;52.00;;;;;;5052715;28;20535;-51
2023/05/09 11:26:16;;;;;;;6.10;4.20;;;17.20;52.60;;;;;;5051138;28;20444;-50
2023/05/09 11:28:52;;;;;;;5.80;3.17;;;17.50;53.30;;;;;;5051186;28;20510;-49
2023/05/09 11:31:20;;;;;;;4.20;2.40;;;17.30;52.90;;;;;;5051583;28;20487;-49
2023/05/09 11:33:53;;;;;;;6.20;2.80;;;17.40;52.50;;;;;;5051865;28;20479;-49
2023/05/09 11:36:28;;;;;;;5.13;3.37;;;17.40;51.80;;;;;;5051714;28;20490;-49
2023/05/09 11:39:05;;;;;;;7.13;3.07;;;16.80;51.00;;;;;;5051104;28;20439;-50
2023/05/09 11:41:39;;;;;;;8.80;3.03;;;17.20;51.60;;;;;;5077519;22;20473;-44
2023/05/09 11:44:14;;;;;;;5.67;3.20;;;17.30;51.50;;;;;;5071303;28;20468;-43
2023/05/09 11:46:40;;;;;;;6.13;2.77;;;17.40;51.10;;;;;;5072362;28;20446;-43
2023/05/09 11:49:07;;;;;;;5.47;3.20;;;17.50;50.90;;;;;;5072370;28;20435;-42
2023/05/09 11:51:36;;;;;;;7.33;3.67;;;17.40;50.80;;;;;;5072599;28;20525;-43
2023/05/09 11:54:04;;;;;;;4.30;2.60;;;17.80;51.30;;;;;;5072535;28;20422;-43
2023/05/09 11:56:31;;;;;;;8.70;2.97;;;17.70;51.20;;;;;;5072269;28;20440;-44
2023/05/09 11:58:58;;;;;;;7.20;3.23;;;17.80;51.30;;;;;;5072365;28;20518;-43
2023/05/09 12:01:25;;;;;;;6.13;3.00;;;17.80;51.40;;;;;;5072730;28;20424;-43
2023/05/09 12:03:52;;;;;;;4.23;3.40;;;17.40;51.20;;;;;;5073272;28;20452;-42
2023/05/09 12:06:19;;;;;;;7.37;2.80;;;17.70;51.90;;;;;;5054211;28;20782;-43
2023/05/09 12:08:47;;;;;;;3.60;2.80;;;17.20;50.90;;;;;;5071944;28;20574;-43
2023/05/09 12:11:15;;;;;;;5.40;3.60;;;17.60;51.10;;;;;;5071683;28;20467;-43
2023/05/09 12:13:46;;;;;;;7.20;3.70;;;17.70;51.10;;;;;;5073660;28;20994;-42
2023/05/09 12:16:13;;;;;;;5.93;3.30;;;18.00;51.70;;;;;;5076093;28;20591;-42
2023/05/09 12:18:44;;;;;;;8.03;3.00;;;17.80;50.70;;;;;;5076360;28;20411;-43
2023/05/09 12:21:11;;;;;;;10.03;3.00;;;17.80;50.40;;;;;;5076721;28;20463;-43
2023/05/09 12:23:38;;;;;;;4.57;2.80;;;17.40;49.90;;;;;;5076348;28;20469;-43
2023/05/09 12:26:05;;;;;;;9.30;3.37;;;18.00;50.70;;;;;;5076148;28;20922;-45
2023/05/09 12:28:35;;;;;;;3.80;3.10;;;17.70;50.30;;;;;;5076327;28;20442;-44
2023/05/09 12:31:02;;;;;;;4.00;3.00;;;17.50;50.00;;;;;;5075874;28;20479;-42
2023/05/09 12:33:30;;;;;;;3.47;2.57;;;17.40;49.90;;;;;;5076172;28;20995;-43
2023/05/09 12:36:06;;;;;;;4.90;2.40;;;17.60;49.60;;;;;;5076288;28;20437;-43
2023/05/09 12:38:32;;;;;;;28.97;23.50;;;17.80;49.70;;;;;;5076218;28;20448;-43
2023/05/09 12:41:03;;;;;;;18.50;14.03;;;17.60;49.90;;;;;;5076901;28;20439;-42
2023/05/09 12:43:33;;;;;;;8.03;3.00;;;17.80;50.20;;;;;;5076860;28;20470;-42
2023/05/09 12:46:01;;;;;;;3.80;3.00;;;17.20;49.80;;;;;;5078248;28;20527;-43
2023/05/09 12:48:29;;;;;;;4.40;2.83;;;17.60;50.10;;;;;;5058793;28;20428;-44
2023/05/09 12:50:56;;;;;;;7.77;2.43;;;18.10;50.30;;;;;;5038346;28;20956;-44